sensor_id;sensor_type;location;lat;lon;timestamp;pressure;altitude;pressure_sealevel;temperature;humidity
40205;BME280;26963;42.666;23.366;2023-03-20T00:03:46;95218.84;;;7.96;46.94
40205;BME280;26963;42.666;23.366;2023-03-20T00:06:20;95273.75;;;8.33;46.76
40205;BME280;26963;42.666;23.366;2023-03-20T00:08:47;95143.25;;;7.46;47.22
40205;BME280;26963;42.666;23.366;2023-03-20T00:11:34;95246.03;;;8.14;47.61
40205;BME280;26963;42.666;23.366;2023-03-20T00:14:10;95274.25;;;8.30;47.26
40205;BME280;26963;42.666;23.366;2023-03-20T00:16:39;95260.69;;;8.11;47.37
40205;BME280;26963;42.666;23.366;2023-03-20T00:19:09;95268.41;;;8.13;47.82
40205;BME280;26963;42.666;23.366;2023-03-20T00:21:38;95262.56;;;8.16;47.62
40205;BME280;26963;42.666;23.366;2023-03-20T00:24:05;95251.34;;;8.14;47.27
40205;BME280;26963;42.666;23.366;2023-03-20T00:26:35;95191.19;;;7.77;47.59
40205;BME280;26963;42.666;23.366;2023-03-20T00:29:02;95190.38;;;7.76;47.80
40205;BME280;26963;42.666;23.366;2023-03-20T00:31:30;95265.47;;;8.25;47.34
40205;BME280;26963;42.666;23.366;2023-03-20T00:33:57;95260.66;;;8.22;47.88
40205;BME280;26963;42.666;23.366;2023-03-20T00:36:25;95180.25;;;7.68;47.85
40205;BME280;26963;42.666;23.366;2023-03-20T00:38:51;95257.22;;;8.11;47.66
40205;BME280;26963;42.666;23.366;2023-03-20T00:41:21;95216.75;;;7.83;47.81
40205;BME280;26963;42.666;23.366;2023-03-20T00:43:50;95256.69;;;8.09;47.68
40205;BME280;26963;42.666;23.366;2023-03-20T00:46:17;95261.47;;;8.12;47.60
40205;BME280;26963;42.666;23.366;2023-03-20T00:48:43;95183.72;;;7.58;48.15
40205;BME280;26963;42.666;23.366;2023-03-20T00:51:09;95209.28;;;7.54;48.72
40205;BME280;26963;42.666;23.366;2023-03-20T00:53:35;95121.41;;;6.87;49.52
40205;BME280;26963;42.666;23.366;2023-03-20T00:56:01;95221.00;;;7.53;49.09
40205;BME280;26963;42.666;23.366;2023-03-20T00:58:29;95254.84;;;7.78;48.80
40205;BME280;26963;42.666;23.366;2023-03-20T01:00:56;95249.78;;;7.77;48.97
40205;BME280;26963;42.666;23.366;2023-03-20T01:03:24;95259.38;;;7.83;48.80
40205;BME280;26963;42.666;23.366;2023-03-20T01:05:50;95216.72;;;7.57;48.66
40205;BME280;26963;42.666;23.366;2023-03-20T01:08:22;95194.66;;;7.46;48.89
40205;BME280;26963;42.666;23.366;2023-03-20T01:10:50;95180.78;;;7.44;48.65
40205;BME280;26963;42.666;23.366;2023-03-20T01:13:24;95200.75;;;7.52;48.01
40205;BME280;26963;42.666;23.366;2023-03-20T01:15:51;95245.50;;;7.81;48.35
40205;BME280;26963;42.666;23.366;2023-03-20T01:18:18;95225.81;;;7.77;48.72
40205;BME280;26963;42.666;23.366;2023-03-20T01:20:45;95227.94;;;7.70;48.88
40205;BME280;26963;42.666;23.366;2023-03-20T01:23:11;95184.78;;;7.47;48.60
40205;BME280;26963;42.666;23.366;2023-03-20T01:25:37;95146.69;;;7.26;48.29
40205;BME280;26963;42.666;23.366;2023-03-20T01:28:15;95235.66;;;7.71;48.23
40205;BME280;26963;42.666;23.366;2023-03-20T01:30:41;95206.09;;;7.62;48.34
40205;BME280;26963;42.666;23.366;2023-03-20T01:33:18;95234.06;;;7.80;48.13
40205;BME280;26963;42.666;23.366;2023-03-20T01:35:46;95241.25;;;7.85;48.30
40205;BME280;26963;42.666;23.366;2023-03-20T01:38:16;95238.06;;;7.83;48.15
40205;BME280;26963;42.666;23.366;2023-03-20T01:40:56;95230.84;;;7.89;47.91
40205;BME280;26963;42.666;23.366;2023-03-20T01:43:24;95230.34;;;7.87;47.91
40205;BME280;26963;42.666;23.366;2023-03-20T01:46:16;95238.56;;;7.90;47.67
40205;BME280;26963;42.666;23.366;2023-03-20T01:51:18;95178.41;;;7.48;47.39
40205;BME280;26963;42.666;23.366;2023-03-20T01:53:52;95230.06;;;7.83;47.47
40205;BME280;26963;42.666;23.366;2023-03-20T01:56:19;95241.25;;;7.85;47.42
40205;BME280;26963;42.666;23.366;2023-03-20T01:58:54;95228.75;;;7.86;47.43
40205;BME280;26963;42.666;23.366;2023-03-20T02:01:23;95155.22;;;7.38;47.18
40205;BME280;26963;42.666;23.366;2023-03-20T02:03:50;95149.13;;;7.38;47.26
40205;BME280;26963;42.666;23.366;2023-03-20T02:06:17;95239.91;;;7.98;47.10
40205;BME280;26963;42.666;23.366;2023-03-20T02:08:47;95172.53;;;7.51;47.39
40205;BME280;26963;42.666;23.366;2023-03-20T02:11:14;95235.13;;;7.95;47.53
40205;BME280;26963;42.666;23.366;2023-03-20T02:13:41;95222.59;;;7.90;47.79
40205;BME280;26963;42.666;23.366;2023-03-20T02:16:14;95214.59;;;7.85;47.79
40205;BME280;26963;42.666;23.366;2023-03-20T02:18:42;95159.22;;;7.46;47.30
40205;BME280;26963;42.666;23.366;2023-03-20T02:23:48;95226.59;;;7.88;47.61
40205;BME280;26963;42.666;23.366;2023-03-20T02:29:12;95231.41;;;7.75;47.90
40205;BME280;26963;42.666;23.366;2023-03-20T02:40:16;95240.69;;;7.57;48.17
40205;BME280;26963;42.666;23.366;2023-03-20T02:42:51;95238.59;;;7.54;48.14
40205;BME280;26963;42.666;23.366;2023-03-20T02:56:00;95156.25;;;6.91;48.27
40205;BME280;26963;42.666;23.366;2023-03-20T02:58:46;95162.34;;;6.81;48.53
40205;BME280;26963;42.666;23.366;2023-03-20T03:01:20;95224.44;;;7.33;48.83
40205;BME280;26963;42.666;23.366;2023-03-20T03:03:54;95196.47;;;7.15;48.80
40205;BME280;26963;42.666;23.366;2023-03-20T03:06:28;95217.78;;;7.35;48.42
40205;BME280;26963;42.666;23.366;2023-03-20T03:09:30;95221.50;;;7.34;48.40
40205;BME280;26963;42.666;23.366;2023-03-20T03:12:08;95221.50;;;7.34;48.56
40205;BME280;26963;42.666;23.366;2023-03-20T03:14:39;95224.69;;;7.26;48.99
40205;BME280;26963;42.666;23.366;2023-03-20T03:17:07;95215.09;;;7.20;48.95
40205;BME280;26963;42.666;23.366;2023-03-20T03:19:36;95176.19;;;6.88;49.31
40205;BME280;26963;42.666;23.366;2023-03-20T03:22:03;95222.28;;;7.20;49.40
40205;BME280;26963;42.666;23.366;2023-03-20T03:24:32;95197.25;;;7.10;49.35
40205;BME280;26963;42.666;23.366;2023-03-20T03:27:02;95215.38;;;7.24;48.81
40205;BME280;26963;42.666;23.366;2023-03-20T03:29:34;95215.88;;;7.21;49.13
40205;BME280;26963;42.666;23.366;2023-03-20T03:32:02;95146.84;;;6.62;49.26
40205;BME280;26963;42.666;23.366;2023-03-20T03:34:30;95229.72;;;7.12;49.91
40205;BME280;26963;42.666;23.366;2023-03-20T03:37:04;95203.38;;;7.00;49.89
40205;BME280;26963;42.666;23.366;2023-03-20T03:39:39;95226.78;;;7.14;49.83
40205;BME280;26963;42.666;23.366;2023-03-20T03:42:29;95226.78;;;7.09;49.52
40205;BME280;26963;42.666;23.366;2023-03-20T03:45:08;95167.09;;;6.68;49.87
40205;BME280;26963;42.666;23.366;2023-03-20T03:47:42;95061.53;;;5.95;49.95
40205;BME280;26963;42.666;23.366;2023-03-20T03:50:14;95208.41;;;6.97;49.67
40205;BME280;26963;42.666;23.366;2023-03-20T03:52:43;95231.56;;;7.12;49.39
40205;BME280;26963;42.666;23.366;2023-03-20T03:55:13;95200.94;;;6.94;49.68
40205;BME280;26963;42.666;23.366;2023-03-20T03:57:45;95225.72;;;7.10;49.91
40205;BME280;26963;42.666;23.366;2023-03-20T04:00:15;95172.44;;;6.79;49.86
40205;BME280;26963;42.666;23.366;2023-03-20T04:02:43;95216.41;;;7.12;49.60
40205;BME280;26963;42.666;23.366;2023-03-20T04:05:10;95147.41;;;6.69;49.14
40205;BME280;26963;42.666;23.366;2023-03-20T04:07:38;95143.16;;;6.68;49.51
40205;BME280;26963;42.666;23.366;2023-03-20T04:10:04;95206.03;;;7.06;49.02
40205;BME280;26963;42.666;23.366;2023-03-20T04:14:58;95181.81;;;7.02;48.95
40205;BME280;26963;42.666;23.366;2023-03-20T04:17:24;95192.19;;;7.04;48.97
40205;BME280;26963;42.666;23.366;2023-03-20T04:19:49;95134.66;;;6.66;48.99
40205;BME280;26963;42.666;23.366;2023-03-20T04:22:15;95188.69;;;6.98;49.43
40205;BME280;26963;42.666;23.366;2023-03-20T04:24:40;95167.38;;;6.77;49.06
40205;BME280;26963;42.666;23.366;2023-03-20T04:27:06;95210.78;;;6.93;49.19
40205;BME280;26963;42.666;23.366;2023-03-20T04:29:32;95199.59;;;6.96;49.18
40205;BME280;26963;42.666;23.366;2023-03-20T04:31:57;95201.19;;;6.92;49.58
40205;BME280;26963;42.666;23.366;2023-03-20T04:34:24;95142.56;;;6.51;49.61
40205;BME280;26963;42.666;23.366;2023-03-20T04:36:50;95210.25;;;6.91;49.35
40205;BME280;26963;42.666;23.366;2023-03-20T04:39:15;95179.34;;;6.75;49.17
40205;BME280;26963;42.666;23.366;2023-03-20T04:41:41;95200.94;;;6.94;49.21
40205;BME280;26963;42.666;23.366;2023-03-20T04:44:07;95196.66;;;6.93;49.52
40205;BME280;26963;42.666;23.366;2023-03-20T04:46:32;95216.13;;;7.04;49.29
40205;BME280;26963;42.666;23.366;2023-03-20T04:48:58;95160.19;;;6.73;49.37
40205;BME280;26963;42.666;23.366;2023-03-20T04:51:23;95140.19;;;6.55;48.95
40205;BME280;26963;42.666;23.366;2023-03-20T04:53:49;95207.59;;;7.01;49.05
40205;BME280;26963;42.666;23.366;2023-03-20T04:56:17;95236.94;;;7.17;49.28
40205;BME280;26963;42.666;23.366;2023-03-20T04:58:43;95123.97;;;6.51;49.26
40205;BME280;26963;42.666;23.366;2023-03-20T05:01:08;95234.28;;;7.22;49.41
40205;BME280;26963;42.666;23.366;2023-03-20T05:03:34;95231.59;;;7.17;49.44
40205;BME280;26963;42.666;23.366;2023-03-20T05:05:59;95040.84;;;5.97;49.45
40205;BME280;26963;42.666;23.366;2023-03-20T05:08:25;95174.59;;;6.87;49.32
40205;BME280;26963;42.666;23.366;2023-03-20T05:10:51;95208.94;;;7.09;49.21
40205;BME280;26963;42.666;23.366;2023-03-20T05:13:17;95247.59;;;7.38;49.45
40205;BME280;26963;42.666;23.366;2023-03-20T05:15:42;95249.22;;;7.49;49.29
40205;BME280;26963;42.666;23.366;2023-03-20T05:18:08;95243.34;;;7.52;49.31
40205;BME280;26963;42.666;23.366;2023-03-20T05:20:34;95238.31;;;7.56;48.89
40205;BME280;26963;42.666;23.366;2023-03-20T05:23:01;95234.84;;;7.60;48.89
40205;BME280;26963;42.666;23.366;2023-03-20T05:25:27;95185.31;;;7.39;48.91
40205;BME280;26963;42.666;23.366;2023-03-20T05:27:53;95256.94;;;7.81;48.77
40205;BME280;26963;42.666;23.366;2023-03-20T05:30:18;95239.63;;;7.84;48.17
40205;BME280;26963;42.666;23.366;2023-03-20T05:32:44;95238.06;;;7.88;47.91
40205;BME280;26963;42.666;23.366;2023-03-20T05:35:10;95233.78;;;7.87;48.08
40205;BME280;26963;42.666;23.366;2023-03-20T05:37:37;95245.50;;;7.96;47.91
40205;BME280;26963;42.666;23.366;2023-03-20T05:40:03;95254.56;;;8.11;48.05
40205;BME280;26963;42.666;23.366;2023-03-20T05:42:29;95254.56;;;8.21;47.98
40205;BME280;26963;42.666;23.366;2023-03-20T05:44:55;95250.00;;;8.32;47.94
40205;BME280;26963;42.666;23.366;2023-03-20T05:47:20;95252.66;;;8.42;47.47
40205;BME280;26963;42.666;23.366;2023-03-20T05:49:46;95227.88;;;8.31;47.25
40205;BME280;26963;42.666;23.366;2023-03-20T05:52:11;95232.38;;;8.52;47.34
40205;BME280;26963;42.666;23.366;2023-03-20T05:54:37;95119.53;;;7.86;47.44
40205;BME280;26963;42.666;23.366;2023-03-20T05:57:02;95260.25;;;8.90;47.43
40205;BME280;26963;42.666;23.366;2023-03-20T05:59:28;95241.06;;;8.88;47.39
40205;BME280;26963;42.666;23.366;2023-03-20T06:01:53;95251.94;;;9.07;47.46
40205;BME280;26963;42.666;23.366;2023-03-20T06:04:19;95251.34;;;9.16;46.51
40205;BME280;26963;42.666;23.366;2023-03-20T06:06:44;95176.00;;;8.74;45.51
40205;BME280;26963;42.666;23.366;2023-03-20T06:09:10;95253.06;;;9.41;45.31
40205;BME280;26963;42.666;23.366;2023-03-20T06:11:36;95183.84;;;9.10;45.58
40205;BME280;26963;42.666;23.366;2023-03-20T06:14:01;95231.16;;;9.44;45.01
40205;BME280;26963;42.666;23.366;2023-03-20T06:16:27;95238.06;;;9.50;45.36
40205;BME280;26963;42.666;23.366;2023-03-20T06:18:52;95235.09;;;9.57;44.74
40205;BME280;26963;42.666;23.366;2023-03-20T06:21:18;95245.44;;;9.63;45.04
40205;BME280;26963;42.666;23.366;2023-03-20T06:23:43;95258.78;;;9.69;45.53
40205;BME280;26963;42.666;23.366;2023-03-20T06:26:09;95262.50;;;9.68;45.24
40205;BME280;26963;42.666;23.366;2023-03-20T06:28:36;95229.81;;;9.46;45.54
40205;BME280;26963;42.666;23.366;2023-03-20T06:31:01;95226.38;;;9.41;45.31
40205;BME280;26963;42.666;23.366;2023-03-20T06:33:27;95178.75;;;9.13;45.59
40205;BME280;26963;42.666;23.366;2023-03-20T06:35:53;95132.72;;;8.92;45.80
40205;BME280;26963;42.666;23.366;2023-03-20T06:38:18;95231.47;;;9.77;45.41
40205;BME280;26963;42.666;23.366;2023-03-20T06:40:44;95249.47;;;10.01;44.78
40205;BME280;26963;42.666;23.366;2023-03-20T06:43:09;95228.47;;;9.84;44.89
40205;BME280;26963;42.666;23.366;2023-03-20T06:45:37;95239.69;;;10.15;44.01
40205;BME280;26963;42.666;23.366;2023-03-20T06:48:07;95250.72;;;10.91;42.68
40205;BME280;26963;42.666;23.366;2023-03-20T06:50:33;95218.69;;;11.43;41.27
40205;BME280;26963;42.666;23.366;2023-03-20T06:52:58;95254.41;;;12.43;39.94
40205;BME280;26963;42.666;23.366;2023-03-20T06:55:24;95228.00;;;12.78;38.93
40205;BME280;26963;42.666;23.366;2023-03-20T06:57:49;95219.00;;;13.38;37.76
40205;BME280;26963;42.666;23.366;2023-03-20T07:00:15;95238.13;;;14.50;36.57
40205;BME280;26963;42.666;23.366;2023-03-20T07:02:41;95217.97;;;15.37;34.79
40205;BME280;26963;42.666;23.366;2023-03-20T07:05:07;95196.53;;;16.20;33.42
40205;BME280;26963;42.666;23.366;2023-03-20T07:07:34;95226.97;;;16.94;31.39
40205;BME280;26963;42.666;23.366;2023-03-20T07:10:02;95221.00;;;17.39;31.45
40205;BME280;26963;42.666;23.366;2023-03-20T07:12:28;95108.56;;;17.08;30.43
40205;BME280;26963;42.666;23.366;2023-03-20T07:14:54;95169.09;;;17.80;30.33
40205;BME280;26963;42.666;23.366;2023-03-20T07:17:21;95158.47;;;18.29;29.54
40205;BME280;26963;42.666;23.366;2023-03-20T07:19:47;95174.06;;;18.82;28.67
40205;BME280;26963;42.666;23.366;2023-03-20T07:22:24;95108.78;;;18.74;27.99
40205;BME280;26963;42.666;23.366;2023-03-20T07:24:51;95146.50;;;19.17;27.45
40205;BME280;26963;42.666;23.366;2023-03-20T07:27:17;95215.25;;;20.02;27.00
40205;BME280;26963;42.666;23.366;2023-03-20T07:29:43;95140.53;;;20.09;26.13
40205;BME280;26963;42.666;23.366;2023-03-20T07:32:09;95158.97;;;20.63;25.47
40205;BME280;26963;42.666;23.366;2023-03-20T07:34:35;95206.88;;;21.16;25.29
40205;BME280;26963;42.666;23.366;2023-03-20T07:37:00;95211.22;;;21.37;25.23
40205;BME280;26963;42.666;23.366;2023-03-20T07:39:26;95176.31;;;21.23;25.54
40205;BME280;26963;42.666;23.366;2023-03-20T07:41:51;95178.28;;;21.42;25.77
40205;BME280;26963;42.666;23.366;2023-03-20T07:44:17;95203.25;;;21.63;24.35
40205;BME280;26963;42.666;23.366;2023-03-20T07:46:44;95195.81;;;21.60;24.54
40205;BME280;26963;42.666;23.366;2023-03-20T07:49:12;95210.16;;;21.57;24.59
40205;BME280;26963;42.666;23.366;2023-03-20T07:51:38;95208.09;;;21.70;24.32
40205;BME280;26963;42.666;23.366;2023-03-20T07:54:04;95219.03;;;22.32;23.93
40205;BME280;26963;42.666;23.366;2023-03-20T07:56:29;95212.31;;;22.69;23.02
40205;BME280;26963;42.666;23.366;2023-03-20T07:58:55;95209.03;;;22.83;22.67
40205;BME280;26963;42.666;23.366;2023-03-20T08:01:21;95210.31;;;22.89;22.47
40205;BME280;26963;42.666;23.366;2023-03-20T08:03:46;95189.09;;;22.56;22.55
40205;BME280;26963;42.666;23.366;2023-03-20T08:06:12;95207.31;;;22.71;22.70
40205;BME280;26963;42.666;23.366;2023-03-20T08:08:37;95199.13;;;22.28;22.84
40205;BME280;26963;42.666;23.366;2023-03-20T08:11:03;95211.59;;;22.72;23.17
40205;BME280;26963;42.666;23.366;2023-03-20T08:13:29;95188.69;;;22.34;23.21
40205;BME280;26963;42.666;23.366;2023-03-20T08:15:54;95193.84;;;23.09;22.37
40205;BME280;26963;42.666;23.366;2023-03-20T08:18:20;95185.09;;;22.96;22.26
40205;BME280;26963;42.666;23.366;2023-03-20T08:20:47;95214.59;;;23.67;22.33
40205;BME280;26963;42.666;23.366;2023-03-20T08:23:15;95178.38;;;24.01;21.21
40205;BME280;26963;42.666;23.366;2023-03-20T08:25:41;95215.09;;;24.37;21.44
40205;BME280;26963;42.666;23.366;2023-03-20T08:28:11;95188.00;;;24.25;21.30
40205;BME280;26963;42.666;23.366;2023-03-20T08:30:37;95208.94;;;24.85;20.89
40205;BME280;26963;42.666;23.366;2023-03-20T08:33:02;95200.19;;;25.24;20.25
40205;BME280;26963;42.666;23.366;2023-03-20T08:35:28;95158.41;;;25.31;19.86
40205;BME280;26963;42.666;23.366;2023-03-20T08:37:53;95172.31;;;25.60;19.65
40205;BME280;26963;42.666;23.366;2023-03-20T08:40:19;95212.06;;;26.06;20.05
40205;BME280;26963;42.666;23.366;2023-03-20T08:42:44;95213.69;;;25.44;19.79
40205;BME280;26963;42.666;23.366;2023-03-20T08:45:10;95208.31;;;25.10;20.42
40205;BME280;26963;42.666;23.366;2023-03-20T08:47:36;95204.75;;;24.61;20.88
40205;BME280;26963;42.666;23.366;2023-03-20T08:50:02;95205.88;;;24.19;21.48
40205;BME280;26963;42.666;23.366;2023-03-20T08:52:27;95209.94;;;23.68;22.07
40205;BME280;26963;42.666;23.366;2023-03-20T08:54:53;95201.22;;;22.58;23.24
40205;BME280;26963;42.666;23.366;2023-03-20T08:57:19;95155.88;;;21.48;24.99
40205;BME280;26963;42.666;23.366;2023-03-20T08:59:44;95204.25;;;21.04;26.38
40205;BME280;26963;42.666;23.366;2023-03-20T09:02:10;95200.44;;;20.73;27.01
40205;BME280;26963;42.666;23.366;2023-03-20T09:04:36;95213.03;;;20.81;27.18
40205;BME280;26963;42.666;23.366;2023-03-20T09:07:02;95148.03;;;20.44;27.40
40205;BME280;26963;42.666;23.366;2023-03-20T09:09:28;95185.09;;;20.52;25.88
40205;BME280;26963;42.666;23.366;2023-03-20T09:11:55;95204.41;;;20.47;26.47
40205;BME280;26963;42.666;23.366;2023-03-20T09:14:22;95191.63;;;20.19;27.08
40205;BME280;26963;42.666;23.366;2023-03-20T09:16:48;95177.47;;;20.26;27.47
40205;BME280;26963;42.666;23.366;2023-03-20T09:19:13;95170.56;;;20.28;26.76
40205;BME280;26963;42.666;23.366;2023-03-20T09:21:39;95189.25;;;20.46;26.71
40205;BME280;26963;42.666;23.366;2023-03-20T09:24:05;95121.88;;;20.07;26.67
40205;BME280;26963;42.666;23.366;2023-03-20T09:26:31;95180.38;;;20.49;26.91
40205;BME280;26963;42.666;23.366;2023-03-20T09:28:56;95182.84;;;20.54;27.20
40205;BME280;26963;42.666;23.366;2023-03-20T09:31:22;95184.94;;;20.45;26.46
40205;BME280;26963;42.666;23.366;2023-03-20T09:33:48;95169.66;;;20.24;26.98
40205;BME280;26963;42.666;23.366;2023-03-20T09:36:13;95185.69;;;20.13;27.30
40205;BME280;26963;42.666;23.366;2023-03-20T09:38:40;95170.00;;;20.07;26.73
40205;BME280;26963;42.666;23.366;2023-03-20T09:41:22;95174.00;;;20.13;26.79
40205;BME280;26963;42.666;23.366;2023-03-20T09:52:03;95138.22;;;20.23;27.78
40205;BME280;26963;42.666;23.366;2023-03-20T09:54:40;95147.44;;;20.34;26.81
40205;BME280;26963;42.666;23.366;2023-03-20T09:57:18;95044.81;;;19.67;26.94
40205;BME280;26963;42.666;23.366;2023-03-20T09:59:46;95101.19;;;20.02;27.04
40205;BME280;26963;42.666;23.366;2023-03-20T10:02:18;95126.38;;;20.31;27.17
40205;BME280;26963;42.666;23.366;2023-03-20T10:04:52;95098.84;;;20.17;26.39
40205;BME280;26963;42.666;23.366;2023-03-20T10:07:19;95118.19;;;19.99;26.64
40205;BME280;26963;42.666;23.366;2023-03-20T10:09:44;95091.88;;;19.59;27.31
40205;BME280;26963;42.666;23.366;2023-03-20T10:12:23;95107.66;;;19.69;29.10
40205;BME280;26963;42.666;23.366;2023-03-20T10:15:01;95074.88;;;19.46;27.58
40205;BME280;26963;42.666;23.366;2023-03-20T10:20:09;95099.09;;;19.39;28.80
40205;BME280;26963;42.666;23.366;2023-03-20T10:22:44;95100.97;;;19.51;28.89
40205;BME280;26963;42.666;23.366;2023-03-20T10:25:22;95090.72;;;19.72;29.02
40205;BME280;26963;42.666;23.366;2023-03-20T10:27:56;95077.03;;;19.69;28.12
40205;BME280;26963;42.666;23.366;2023-03-20T10:33:21;95051.63;;;19.33;27.92
40205;BME280;26963;42.666;23.366;2023-03-20T10:41:18;94985.53;;;19.25;29.91
40205;BME280;26963;42.666;23.366;2023-03-20T10:43:48;94987.44;;;19.37;30.75
40205;BME280;26963;42.666;23.366;2023-03-20T10:46:25;95037.28;;;19.77;32.67
40205;BME280;26963;42.666;23.366;2023-03-20T10:49:02;95051.34;;;20.11;30.32
40205;BME280;26963;42.666;23.366;2023-03-20T10:51:51;95054.22;;;20.34;30.52
40205;BME280;26963;42.666;23.366;2023-03-20T10:54:34;95053.97;;;20.55;30.46
40205;BME280;26963;42.666;23.366;2023-03-20T10:57:03;94999.13;;;20.33;27.28
40205;BME280;26963;42.666;23.366;2023-03-20T10:59:35;95049.47;;;20.63;27.24
40205;BME280;26963;42.666;23.366;2023-03-20T11:02:13;95017.88;;;20.39;28.16
40205;BME280;26963;42.666;23.366;2023-03-20T11:04:39;94945.00;;;19.77;28.91
40205;BME280;26963;42.666;23.366;2023-03-20T11:09:39;95029.69;;;20.46;27.34
40205;BME280;26963;42.666;23.366;2023-03-20T11:12:14;95007.53;;;20.28;29.30
40205;BME280;26963;42.666;23.366;2023-03-20T11:14:42;95010.84;;;20.37;29.36
40205;BME280;26963;42.666;23.366;2023-03-20T11:17:09;95022.31;;;20.47;26.77
40205;BME280;26963;42.666;23.366;2023-03-20T11:19:38;95007.69;;;20.35;27.49
40205;BME280;26963;42.666;23.366;2023-03-20T11:22:25;94893.78;;;19.59;26.75
40205;BME280;26963;42.666;23.366;2023-03-20T11:24:57;95007.41;;;20.41;27.31
40205;BME280;26963;42.666;23.366;2023-03-20T11:27:30;94998.69;;;20.31;26.23
40205;BME280;26963;42.666;23.366;2023-03-20T11:29:59;94988.34;;;20.37;28.74
40205;BME280;26963;42.666;23.366;2023-03-20T11:32:41;94984.13;;;20.40;27.61
40205;BME280;26963;42.666;23.366;2023-03-20T11:35:20;94996.59;;;20.60;28.86
40205;BME280;26963;42.666;23.366;2023-03-20T11:37:49;94993.59;;;20.65;26.05
40205;BME280;26963;42.666;23.366;2023-03-20T11:40:23;94965.97;;;20.44;25.91
40205;BME280;26963;42.666;23.366;2023-03-20T11:45:22;94903.94;;;19.94;27.03
40205;BME280;26963;42.666;23.366;2023-03-20T11:47:52;94973.66;;;20.42;29.29
40205;BME280;26963;42.666;23.366;2023-03-20T11:50:35;94943.66;;;20.54;26.42
40205;BME280;26963;42.666;23.366;2023-03-20T11:53:14;94960.53;;;20.63;25.07
40205;BME280;26963;42.666;23.366;2023-03-20T11:55:42;94947.38;;;20.65;25.39
40205;BME280;26963;42.666;23.366;2023-03-20T11:58:14;94868.94;;;20.09;26.00
40205;BME280;26963;42.666;23.366;2023-03-20T12:00:41;94955.09;;;20.63;26.79
40205;BME280;26963;42.666;23.366;2023-03-20T12:06:13;94909.53;;;20.57;25.70
40205;BME280;26963;42.666;23.366;2023-03-20T12:08:40;94916.63;;;20.61;27.35
40205;BME280;26963;42.666;23.366;2023-03-20T12:13:58;94927.97;;;20.83;24.40
40205;BME280;26963;42.666;23.366;2023-03-20T12:16:26;94903.47;;;20.63;25.39
40205;BME280;26963;42.666;23.366;2023-03-20T12:19:00;94854.75;;;20.35;25.31
40205;BME280;26963;42.666;23.366;2023-03-20T12:21:39;94902.03;;;20.69;24.15
40205;BME280;26963;42.666;23.366;2023-03-20T12:24:20;94920.09;;;20.78;24.50
40205;BME280;26963;42.666;23.366;2023-03-20T12:27:16;94917.09;;;20.83;25.02
40205;BME280;26963;42.666;23.366;2023-03-20T12:32:37;94906.91;;;20.80;23.57
40205;BME280;26963;42.666;23.366;2023-03-20T12:35:11;94900.03;;;20.66;24.39
40205;BME280;26963;42.666;23.366;2023-03-20T12:37:39;94869.44;;;20.50;25.82
40205;BME280;26963;42.666;23.366;2023-03-20T12:40:10;94899.78;;;20.72;24.27
40205;BME280;26963;42.666;23.366;2023-03-20T12:45:18;94894.25;;;20.68;24.89
40205;BME280;26963;42.666;23.366;2023-03-20T12:50:35;94828.34;;;20.35;23.91
40205;BME280;26963;42.666;23.366;2023-03-20T12:53:12;94880.28;;;20.69;22.82
40205;BME280;26963;42.666;23.366;2023-03-20T12:55:57;94802.56;;;20.26;23.86
40205;BME280;26963;42.666;23.366;2023-03-20T12:58:47;94856.84;;;20.61;23.91
40205;BME280;26963;42.666;23.366;2023-03-20T13:01:19;94873.16;;;20.61;23.68
40205;BME280;26963;42.666;23.366;2023-03-20T13:12:10;94682.22;;;19.47;23.23
40205;BME280;26963;42.666;23.366;2023-03-20T13:27:57;94801.50;;;20.11;22.04
40205;BME280;26963;42.666;23.366;2023-03-20T13:30:33;94827.50;;;20.31;22.53
40205;BME280;26963;42.666;23.366;2023-03-20T13:33:25;94757.31;;;19.94;22.53
40205;BME280;26963;42.666;23.366;2023-03-20T13:38:58;94799.50;;;20.27;20.70
40205;BME280;26963;42.666;23.366;2023-03-20T13:41:25;94763.16;;;19.96;21.54
40205;BME280;26963;42.666;23.366;2023-03-20T13:43:55;94815.78;;;20.27;20.72
40205;BME280;26963;42.666;23.366;2023-03-20T13:46:33;94793.06;;;20.16;21.14
40205;BME280;26963;42.666;23.366;2023-03-20T13:49:14;94777.31;;;20.06;21.76
40205;BME280;26963;42.666;23.366;2023-03-20T13:51:45;94805.38;;;20.29;22.23
40205;BME280;26963;42.666;23.366;2023-03-20T13:57:18;94802.91;;;20.24;21.21
40205;BME280;26963;42.666;23.366;2023-03-20T14:05:37;94790.50;;;20.23;21.03
40205;BME280;26963;42.666;23.366;2023-03-20T14:11:24;94788.69;;;20.31;20.80
40205;BME280;26963;42.666;23.366;2023-03-20T14:14:02;94786.34;;;20.29;21.42
40205;BME280;26963;42.666;23.366;2023-03-20T14:16:31;94776.19;;;20.26;21.49
40205;BME280;26963;42.666;23.366;2023-03-20T14:21:44;94719.84;;;20.03;21.41
40205;BME280;26963;42.666;23.366;2023-03-20T14:24:13;94773.31;;;20.39;21.40
40205;BME280;26963;42.666;23.366;2023-03-20T14:26:40;94767.97;;;20.42;21.33
40205;BME280;26963;42.666;23.366;2023-03-20T14:31:39;94758.59;;;20.40;20.43
40205;BME280;26963;42.666;23.366;2023-03-20T14:36:57;94761.09;;;20.48;21.35
40205;BME280;26963;42.666;23.366;2023-03-20T14:42:30;94757.16;;;20.46;21.21
40205;BME280;26963;42.666;23.366;2023-03-20T14:53:24;94749.72;;;20.43;21.11
40205;BME280;26963;42.666;23.366;2023-03-20T14:56:00;94741.41;;;20.35;20.53
40205;BME280;26963;42.666;23.366;2023-03-20T14:58:50;94685.66;;;19.99;20.47
40205;BME280;26963;42.666;23.366;2023-03-20T15:04:00;94731.72;;;20.15;21.28
40205;BME280;26963;42.666;23.366;2023-03-20T15:06:30;94755.94;;;20.24;21.47
40205;BME280;26963;42.666;23.366;2023-03-20T15:09:04;94736.88;;;20.00;21.15
40205;BME280;26963;42.666;23.366;2023-03-20T15:11:32;94694.97;;;19.62;21.14
40205;BME280;26963;42.666;23.366;2023-03-20T15:14:00;94744.44;;;19.91;20.75
40205;BME280;26963;42.666;23.366;2023-03-20T15:16:29;94744.13;;;19.77;21.01